Barnaul, Russia
Current Conditions -  °F | °C
As of 11:00 PM on Friday 24 Oct 2014 (Local Time) from UNBB Reporting Station
Clear Clear  
Wind Chill: 39°   Ceiling: Unl
Heat Index: 45°   Visibility: 6mi
Dew Point: 37°   Wind: 11mph
Humidity: 76%   Direction: 180°S
Pressure: 29.88"   Gusts: NA
Location:  53.36°N, 83.75°E
Report Text: UNBB 241600Z 18005MPS CAVOK 07/03 Q1012 NOSIG RMK QFE737/098324CLRD66
Loading
Personal Weather Stations






























Interactive Weather Map
Tropical Storm Tracking
New forecast layout! Learn more

10-Day Weather Forecast

Advertisements
Track Severe Weather on mobile